AIC57 VOBL-VOMM
Flight info
| Callsign | AIC57 |
|---|---|
| Flight time | 0h 39m |
| Altitude | 21000 |
| Route | TULNA8A TULNA DCT DOPSU |
| Aircraft | B77W/H-SDE1E2E3FGHIJ2J3J4J5M1RWXY/LB1D1 |
Departure
| Time | 2026-04-22 06:55 |
|---|---|
| Airport | Kempegowda International Airport Bengaluru (VOBL) |
Arrival
| Time | 2026-04-22 07:34 |
|---|---|
| Airport | Chennai International Airport (VOMM) |
| Time | Latitude | Longitude | Altitude | Speed | Heading |
|---|---|---|---|---|---|
| 2026-04-22 06:31 | 13.20092 | 77.71837 | 3016 ft | 0 kts | 180° |
| 2026-04-22 06:42 | 13.20112 | 77.71837 | 3016 ft | 4 kts | 178° |
| 2026-04-22 06:42 | 13.20139 | 77.71835 | 3023 ft | 4 kts | 177° |
| 2026-04-22 06:43 | 13.20162 | 77.71835 | 3020 ft | 4 kts | 190° |
| 2026-04-22 06:43 | 13.20180 | 77.71841 | 3021 ft | 4 kts | 253° |
| 2026-04-22 06:43 | 13.20181 | 77.71846 | 3022 ft | 0 kts | 270° |
| 2026-04-22 06:45 | 13.20181 | 77.71838 | 3019 ft | 3 kts | 270° |
| 2026-04-22 06:45 | 13.20182 | 77.71815 | 3016 ft | 3 kts | 281° |
| 2026-04-22 06:46 | 13.20203 | 77.71795 | 3016 ft | 5 kts | 333° |
| 2026-04-22 06:46 | 13.20246 | 77.71789 | 3016 ft | 8 kts | 358° |
| 2026-04-22 06:46 | 13.20309 | 77.71788 | 3016 ft | 11 kts | 359° |
| 2026-04-22 06:46 | 13.20392 | 77.71788 | 3016 ft | 13 kts | 1° |
| 2026-04-22 06:47 | 13.20473 | 77.71789 | 3016 ft | 10 kts | 1° |
| 2026-04-22 06:47 | 13.20518 | 77.71756 | 3017 ft | 9 kts | 286° |
| 2026-04-22 06:47 | 13.20521 | 77.71683 | 3017 ft | 12 kts | 270° |
| 2026-04-22 06:47 | 13.20522 | 77.71592 | 3016 ft | 14 kts | 271° |
| 2026-04-22 06:48 | 13.20523 | 77.71484 | 3016 ft | 16 kts | 271° |
| 2026-04-22 06:48 | 13.20524 | 77.71381 | 3016 ft | 16 kts | 270° |
| 2026-04-22 06:48 | 13.20525 | 77.71270 | 3016 ft | 16 kts | 270° |
| 2026-04-22 06:48 | 13.20526 | 77.71158 | 3016 ft | 16 kts | 270° |
| 2026-04-22 06:49 | 13.20527 | 77.71046 | 3016 ft | 16 kts | 270° |
| 2026-04-22 06:49 | 13.20528 | 77.70935 | 3015 ft | 16 kts | 270° |
| 2026-04-22 06:49 | 13.20529 | 77.70823 | 3016 ft | 16 kts | 270° |
| 2026-04-22 06:49 | 13.20529 | 77.70712 | 3016 ft | 16 kts | 271° |
| 2026-04-22 06:50 | 13.20531 | 77.70600 | 3016 ft | 16 kts | 270° |
| 2026-04-22 06:50 | 13.20532 | 77.70506 | 3016 ft | 16 kts | 270° |
| 2026-04-22 06:50 | 13.20533 | 77.70395 | 3016 ft | 16 kts | 270° |
| 2026-04-22 06:50 | 13.20533 | 77.70278 | 3017 ft | 19 kts | 270° |
| 2026-04-22 06:51 | 13.20534 | 77.70112 | 3017 ft | 27 kts | 270° |
| 2026-04-22 06:51 | 13.20537 | 77.69897 | 3016 ft | 33 kts | 270° |
| 2026-04-22 06:51 | 13.20539 | 77.69660 | 3016 ft | 33 kts | 270° |
| 2026-04-22 06:51 | 13.20540 | 77.69430 | 3016 ft | 32 kts | 270° |
| 2026-04-22 06:52 | 13.20543 | 77.69208 | 3016 ft | 31 kts | 271° |
| 2026-04-22 06:52 | 13.20545 | 77.69002 | 3015 ft | 28 kts | 270° |
| 2026-04-22 06:52 | 13.20545 | 77.68814 | 3016 ft | 25 kts | 270° |
| 2026-04-22 06:52 | 13.20546 | 77.68669 | 3016 ft | 13 kts | 270° |
| 2026-04-22 06:53 | 13.20558 | 77.68626 | 3016 ft | 4 kts | 319° |
| 2026-04-22 06:53 | 13.20596 | 77.68616 | 3016 ft | 3 kts | 359° |
| 2026-04-22 06:53 | 13.20643 | 77.68616 | 3016 ft | 12 kts | 359° |
| 2026-04-22 06:53 | 13.20707 | 77.68628 | 3016 ft | 8 kts | 47° |
| 2026-04-22 06:54 | 13.20720 | 77.68690 | 3016 ft | 4 kts | 89° |
| 2026-04-22 06:54 | 13.20720 | 77.68775 | 3016 ft | 28 kts | 90° |
| 2026-04-22 06:54 | 13.20714 | 77.69253 | 3016 ft | 106 kts | 90° |
| 2026-04-22 06:54 | 13.20707 | 77.70238 | 3034 ft | 164 kts | 91° |
| 2026-04-22 06:55 | 13.20692 | 77.71401 | 3737 ft | 161 kts | 94° |
| 2026-04-22 06:55 | 13.20667 | 77.72573 | 4428 ft | 166 kts | 82° |
| 2026-04-22 06:55 | 13.21191 | 77.73648 | 4972 ft | 178 kts | 46° |
| 2026-04-22 06:55 | 13.22157 | 77.74565 | 5280 ft | 202 kts | 56° |
| 2026-04-22 06:56 | 13.22834 | 77.75927 | 5488 ft | 228 kts | 64° |
| 2026-04-22 06:56 | 13.23594 | 77.77415 | 5920 ft | 238 kts | 62° |
| 2026-04-22 06:56 | 13.24405 | 77.78919 | 6036 ft | 247 kts | 62° |
| 2026-04-22 06:56 | 13.25258 | 77.80492 | 6671 ft | 260 kts | 62° |
| 2026-04-22 06:57 | 13.26120 | 77.82080 | 7738 ft | 252 kts | 61° |
| 2026-04-22 06:57 | 13.26735 | 77.83466 | 8498 ft | 253 kts | 76° |
| 2026-04-22 06:57 | 13.26893 | 77.85269 | 9416 ft | 256 kts | 90° |
| 2026-04-22 06:57 | 13.26864 | 77.87100 | 10329 ft | 258 kts | 90° |
| 2026-04-22 06:58 | 13.26836 | 77.88960 | 11209 ft | 262 kts | 89° |
| 2026-04-22 06:58 | 13.26811 | 77.90840 | 12223 ft | 264 kts | 89° |
| 2026-04-22 06:58 | 13.26790 | 77.92733 | 13309 ft | 267 kts | 89° |
| 2026-04-22 06:58 | 13.26769 | 77.94650 | 14307 ft | 272 kts | 89° |
| 2026-04-22 06:59 | 13.26749 | 77.96626 | 15105 ft | 283 kts | 89° |
| 2026-04-22 06:59 | 13.26727 | 77.98677 | 15932 ft | 292 kts | 90° |
| 2026-04-22 06:59 | 13.26706 | 78.00777 | 16859 ft | 299 kts | 90° |
| 2026-04-22 06:59 | 13.26684 | 78.02952 | 17642 ft | 311 kts | 91° |
| 2026-04-22 07:00 | 13.26660 | 78.05209 | 18451 ft | 320 kts | 91° |
| 2026-04-22 07:00 | 13.26636 | 78.07507 | 19314 ft | 324 kts | 91° |
| 2026-04-22 07:00 | 13.26508 | 78.09786 | 20157 ft | 326 kts | 102° |
| 2026-04-22 07:00 | 13.25938 | 78.12068 | 20795 ft | 334 kts | 109° |
| 2026-04-22 07:01 | 13.25239 | 78.14357 | 20978 ft | 339 kts | 110° |
| 2026-04-22 07:01 | 13.24507 | 78.16673 | 20957 ft | 341 kts | 110° |
| 2026-04-22 07:01 | 13.23784 | 78.18978 | 20956 ft | 338 kts | 109° |
| 2026-04-22 07:01 | 13.23077 | 78.21267 | 20948 ft | 335 kts | 109° |
| 2026-04-22 07:02 | 13.22386 | 78.23542 | 20947 ft | 333 kts | 109° |
| 2026-04-22 07:02 | 13.21702 | 78.25813 | 20950 ft | 332 kts | 109° |
| 2026-04-22 07:02 | 13.21025 | 78.28076 | 20950 ft | 332 kts | 109° |
| 2026-04-22 07:02 | 13.20359 | 78.30314 | 20953 ft | 331 kts | 109° |
| 2026-04-22 07:03 | 13.19687 | 78.32576 | 20955 ft | 331 kts | 109° |
| 2026-04-22 07:03 | 13.19017 | 78.34837 | 20955 ft | 332 kts | 109° |
| 2026-04-22 07:03 | 13.18345 | 78.37104 | 20956 ft | 332 kts | 109° |
| 2026-04-22 07:03 | 13.17673 | 78.39371 | 20957 ft | 333 kts | 109° |
| 2026-04-22 07:04 | 13.16998 | 78.41648 | 20946 ft | 334 kts | 109° |
| 2026-04-22 07:04 | 13.16322 | 78.43931 | 20945 ft | 335 kts | 109° |
| 2026-04-22 07:04 | 13.15644 | 78.46220 | 20943 ft | 336 kts | 109° |
| 2026-04-22 07:04 | 13.14965 | 78.48511 | 20947 ft | 336 kts | 109° |
| 2026-04-22 07:05 | 13.14283 | 78.50811 | 20945 ft | 337 kts | 109° |
| 2026-04-22 07:05 | 13.13598 | 78.53117 | 20946 ft | 338 kts | 109° |
| 2026-04-22 07:05 | 13.12914 | 78.55425 | 20947 ft | 338 kts | 109° |
| 2026-04-22 07:05 | 13.12229 | 78.57733 | 20944 ft | 339 kts | 109° |
| 2026-04-22 07:06 | 13.11542 | 78.60046 | 20936 ft | 339 kts | 109° |
| 2026-04-22 07:06 | 13.10856 | 78.62354 | 20938 ft | 338 kts | 109° |
| 2026-04-22 07:06 | 13.10170 | 78.64662 | 20937 ft | 338 kts | 109° |
| 2026-04-22 07:06 | 13.09494 | 78.66935 | 20948 ft | 337 kts | 109° |
| 2026-04-22 07:07 | 13.08811 | 78.69233 | 20921 ft | 337 kts | 108° |
| 2026-04-22 07:07 | 13.08129 | 78.71526 | 20921 ft | 336 kts | 108° |
| 2026-04-22 07:07 | 13.07449 | 78.73812 | 20926 ft | 335 kts | 108° |
| 2026-04-22 07:07 | 13.06770 | 78.76092 | 20924 ft | 334 kts | 108° |
| 2026-04-22 07:08 | 13.06091 | 78.78369 | 20931 ft | 334 kts | 109° |
| 2026-04-22 07:08 | 13.05415 | 78.80645 | 20922 ft | 334 kts | 108° |
| 2026-04-22 07:08 | 13.04736 | 78.82923 | 20924 ft | 334 kts | 109° |
| 2026-04-22 07:08 | 13.04058 | 78.85195 | 20911 ft | 333 kts | 108° |
| 2026-04-22 07:09 | 13.03380 | 78.87470 | 20916 ft | 334 kts | 109° |
| 2026-04-22 07:09 | 13.02700 | 78.89747 | 20913 ft | 337 kts | 108° |
| 2026-04-22 07:09 | 13.01984 | 78.92139 | 20942 ft | 365 kts | 108° |
| 2026-04-22 07:09 | 13.01209 | 78.94728 | 20941 ft | 394 kts | 108° |
| 2026-04-22 07:10 | 13.00381 | 78.97501 | 20942 ft | 420 kts | 108° |
| 2026-04-22 07:10 | 12.99503 | 79.00443 | 20920 ft | 440 kts | 108° |
| 2026-04-22 07:10 | 12.98594 | 79.03496 | 20915 ft | 444 kts | 108° |
| 2026-04-22 07:10 | 12.97699 | 79.06490 | 20905 ft | 444 kts | 108° |
| 2026-04-22 07:11 | 12.96847 | 79.09570 | 20885 ft | 443 kts | 102° |
| 2026-04-22 07:11 | 12.96632 | 79.12670 | 20900 ft | 442 kts | 89° |
| 2026-04-22 07:11 | 12.96777 | 79.15859 | 20865 ft | 442 kts | 87° |
| 2026-04-22 07:11 | 12.96938 | 79.19003 | 20875 ft | 442 kts | 88° |
| 2026-04-22 07:12 | 12.97067 | 79.22114 | 20880 ft | 442 kts | 88° |
| 2026-04-22 07:12 | 12.97165 | 79.25270 | 20881 ft | 443 kts | 89° |
| 2026-04-22 07:12 | 12.97241 | 79.28425 | 20861 ft | 443 kts | 89° |
| 2026-04-22 07:12 | 12.97309 | 79.31588 | 20862 ft | 443 kts | 89° |
| 2026-04-22 07:13 | 12.97377 | 79.34729 | 20665 ft | 440 kts | 89° |
| 2026-04-22 07:13 | 12.97445 | 79.37870 | 20115 ft | 440 kts | 89° |
| 2026-04-22 07:13 | 12.97515 | 79.41038 | 19539 ft | 437 kts | 89° |
| 2026-04-22 07:13 | 12.97581 | 79.44095 | 18952 ft | 434 kts | 89° |
| 2026-04-22 07:14 | 12.97736 | 79.47165 | 18342 ft | 429 kts | 83° |
| 2026-04-22 07:14 | 12.98349 | 79.50148 | 17691 ft | 427 kts | 73° |
| 2026-04-22 07:14 | 12.99262 | 79.53022 | 17051 ft | 423 kts | 70° |
| 2026-04-22 07:14 | 13.00256 | 79.55848 | 16441 ft | 418 kts | 69° |
| 2026-04-22 07:15 | 13.01261 | 79.58630 | 15861 ft | 413 kts | 69° |
| 2026-04-22 07:15 | 13.02253 | 79.61365 | 15296 ft | 407 kts | 69° |
| 2026-04-22 07:15 | 13.03239 | 79.64067 | 14729 ft | 402 kts | 69° |
| 2026-04-22 07:15 | 13.04213 | 79.66726 | 14202 ft | 395 kts | 69° |
| 2026-04-22 07:16 | 13.05176 | 79.69347 | 13707 ft | 389 kts | 69° |
| 2026-04-22 07:16 | 13.06125 | 79.71927 | 13138 ft | 383 kts | 69° |
| 2026-04-22 07:16 | 13.07063 | 79.74474 | 12521 ft | 379 kts | 69° |
| 2026-04-22 07:16 | 13.07991 | 79.76989 | 11933 ft | 375 kts | 69° |
| 2026-04-22 07:17 | 13.08911 | 79.79475 | 11369 ft | 371 kts | 69° |
| 2026-04-22 07:17 | 13.09820 | 79.81922 | 11012 ft | 361 kts | 69° |
| 2026-04-22 07:17 | 13.10709 | 79.84304 | 10618 ft | 354 kts | 69° |
| 2026-04-22 07:17 | 13.11584 | 79.86639 | 10214 ft | 347 kts | 69° |
| 2026-04-22 07:18 | 13.12445 | 79.88929 | 9813 ft | 341 kts | 69° |
| 2026-04-22 07:18 | 13.13293 | 79.91177 | 9389 ft | 330 kts | 69° |
| 2026-04-22 07:18 | 13.14087 | 79.93278 | 8937 ft | 302 kts | 69° |
| 2026-04-22 07:18 | 13.14820 | 79.95213 | 8487 ft | 281 kts | 69° |
| 2026-04-22 07:19 | 13.15516 | 79.97048 | 8081 ft | 276 kts | 69° |
| 2026-04-22 07:19 | 13.16212 | 79.98883 | 7686 ft | 277 kts | 69° |
| 2026-04-22 07:19 | 13.16913 | 80.00731 | 7289 ft | 279 kts | 69° |
| 2026-04-22 07:19 | 13.17618 | 80.02585 | 6898 ft | 280 kts | 69° |
| 2026-04-22 07:20 | 13.18326 | 80.04446 | 6545 ft | 280 kts | 69° |
| 2026-04-22 07:20 | 13.19034 | 80.06306 | 6201 ft | 280 kts | 69° |
| 2026-04-22 07:20 | 13.19721 | 80.08110 | 5791 ft | 263 kts | 69° |
| 2026-04-22 07:20 | 13.20376 | 80.09826 | 5411 ft | 256 kts | 69° |
| 2026-04-22 07:21 | 13.21034 | 80.11530 | 5080 ft | 258 kts | 69° |
| 2026-04-22 07:21 | 13.21471 | 80.12653 | 4839 ft | 257 kts | 69° |
| 2026-04-22 07:21 | 13.22147 | 80.14356 | 4486 ft | 259 kts | 69° |
| 2026-04-22 07:21 | 13.22839 | 80.16064 | 4123 ft | 260 kts | 69° |
| 2026-04-22 07:22 | 13.23528 | 80.17766 | 3995 ft | 253 kts | 68° |
| 2026-04-22 07:22 | 13.24188 | 80.19419 | 3971 ft | 251 kts | 69° |
| 2026-04-22 07:22 | 13.24859 | 80.21092 | 3697 ft | 257 kts | 69° |
| 2026-04-22 07:22 | 13.25548 | 80.22802 | 3361 ft | 260 kts | 69° |
| 2026-04-22 07:23 | 13.26239 | 80.24503 | 3117 ft | 257 kts | 68° |
| 2026-04-22 07:23 | 13.26935 | 80.26190 | 2876 ft | 255 kts | 69° |
| 2026-04-22 07:23 | 13.27620 | 80.27860 | 2631 ft | 252 kts | 68° |
| 2026-04-22 07:23 | 13.28292 | 80.29512 | 2388 ft | 249 kts | 69° |
| 2026-04-22 07:24 | 13.28949 | 80.31113 | 2345 ft | 240 kts | 70° |
| 2026-04-22 07:24 | 13.29564 | 80.32726 | 2298 ft | 245 kts | 81° |
| 2026-04-22 07:24 | 13.29481 | 80.34442 | 2312 ft | 244 kts | 113° |
| 2026-04-22 07:24 | 13.28631 | 80.35804 | 2295 ft | 240 kts | 141° |
| 2026-04-22 07:25 | 13.27217 | 80.36600 | 2310 ft | 229 kts | 163° |
| 2026-04-22 07:25 | 13.25700 | 80.37111 | 2290 ft | 231 kts | 163° |
| 2026-04-22 07:25 | 13.24144 | 80.37619 | 2298 ft | 233 kts | 163° |
| 2026-04-22 07:25 | 13.22638 | 80.38095 | 2306 ft | 219 kts | 163° |
| 2026-04-22 07:26 | 13.21208 | 80.38545 | 2296 ft | 214 kts | 164° |
| 2026-04-22 07:26 | 13.19788 | 80.39000 | 2309 ft | 214 kts | 164° |
| 2026-04-22 07:26 | 13.18362 | 80.39462 | 2299 ft | 216 kts | 164° |
| 2026-04-22 07:26 | 13.16928 | 80.39908 | 2293 ft | 216 kts | 166° |
| 2026-04-22 07:27 | 13.15460 | 80.40255 | 2297 ft | 215 kts | 169° |
| 2026-04-22 07:27 | 13.14026 | 80.40528 | 2287 ft | 205 kts | 173° |
| 2026-04-22 07:27 | 13.12646 | 80.40717 | 2284 ft | 195 kts | 173° |
| 2026-04-22 07:27 | 13.11318 | 80.40890 | 2294 ft | 192 kts | 173° |
| 2026-04-22 07:28 | 13.08764 | 80.40777 | 2288 ft | 187 kts | 212° |
| 2026-04-22 07:28 | 13.07965 | 80.39759 | 2316 ft | 194 kts | 240° |
| 2026-04-22 07:28 | 13.07322 | 80.38534 | 2298 ft | 191 kts | 240° |
| 2026-04-22 07:29 | 13.06742 | 80.37343 | 2299 ft | 187 kts | 242° |
| 2026-04-22 07:29 | 13.06236 | 80.36127 | 2314 ft | 185 kts | 245° |
| 2026-04-22 07:29 | 13.05760 | 80.34895 | 2307 ft | 185 kts | 248° |
| 2026-04-22 07:29 | 13.05292 | 80.33655 | 2297 ft | 187 kts | 246° |
| 2026-04-22 07:30 | 13.04827 | 80.32414 | 2297 ft | 186 kts | 246° |
| 2026-04-22 07:30 | 13.04378 | 80.31214 | 2280 ft | 174 kts | 247° |
| 2026-04-22 07:30 | 13.03955 | 80.30084 | 2308 ft | 168 kts | 244° |
| 2026-04-22 07:30 | 13.03519 | 80.28937 | 2085 ft | 172 kts | 245° |
| 2026-04-22 07:31 | 13.03107 | 80.27827 | 1861 ft | 158 kts | 244° |
| 2026-04-22 07:31 | 13.02715 | 80.26832 | 1686 ft | 147 kts | 247° |
| 2026-04-22 07:31 | 13.02380 | 80.25887 | 1554 ft | 140 kts | 244° |
| 2026-04-22 07:31 | 13.02023 | 80.24926 | 1355 ft | 147 kts | 245° |
| 2026-04-22 07:32 | 13.01665 | 80.23967 | 1128 ft | 140 kts | 243° |
| 2026-04-22 07:32 | 13.01313 | 80.23034 | 973 ft | 142 kts | 243° |
| 2026-04-22 07:32 | 13.00934 | 80.22057 | 805 ft | 151 kts | 243° |
| 2026-04-22 07:32 | 13.00579 | 80.21064 | 626 ft | 143 kts | 244° |
| 2026-04-22 07:33 | 13.00223 | 80.20079 | 390 ft | 154 kts | 246° |
| 2026-04-22 07:33 | 12.99846 | 80.19071 | 235 ft | 149 kts | 245° |
| 2026-04-22 07:33 | 12.99466 | 80.18078 | 62 ft | 149 kts | 244° |
| 2026-04-22 07:33 | 12.99116 | 80.17168 | 53 ft | 122 kts | 250° |
| 2026-04-22 07:34 | 12.98857 | 80.16476 | 54 ft | 86 kts | 248° |
| 2026-04-22 07:34 | 12.98703 | 80.16060 | 54 ft | 46 kts | 249° |
| 2026-04-22 07:34 | 12.98603 | 80.15798 | 53 ft | 38 kts | 248° |
| 2026-04-22 07:34 | 12.98508 | 80.15549 | 60 ft | 36 kts | 249° |
| 2026-04-22 07:35 | 12.98418 | 80.15465 | 57 ft | 12 kts | 138° |
| 2026-04-22 07:35 | 12.98389 | 80.15549 | 55 ft | 13 kts | 105° |
| 2026-04-22 07:35 | 12.98364 | 80.15643 | 58 ft | 14 kts | 106° |
| 2026-04-22 07:35 | 12.98338 | 80.15740 | 56 ft | 14 kts | 105° |
| 2026-04-22 07:36 | 12.98313 | 80.15826 | 53 ft | 9 kts | 108° |
| 2026-04-22 07:36 | 12.98301 | 80.15866 | 54 ft | 6 kts | 107° |
| 2026-04-22 07:36 | 12.98290 | 80.15907 | 60 ft | 7 kts | 101° |
| 2026-04-22 07:36 | 12.98291 | 80.15948 | 60 ft | 4 kts | 84° |
| 2026-04-22 07:37 | 12.98303 | 80.15979 | 53 ft | 5 kts | 68° |
| 2026-04-22 07:37 | 12.98305 | 80.15985 | 54 ft | 1 kts | 68° |
| 2026-04-22 07:37 | 12.98310 | 80.15998 | 53 ft | 3 kts | 68° |
| 2026-04-22 07:37 | 12.98312 | 80.16022 | 54 ft | 4 kts | 101° |
| 2026-04-22 07:38 | 12.98289 | 80.16044 | 55 ft | 5 kts | 160° |
| 2026-04-22 07:38 | 12.98281 | 80.16047 | 55 ft | 4 kts | 162° |
| 2026-04-22 07:38 | 12.98267 | 80.16052 | 55 ft | 5 kts | 160° |
| 2026-04-22 07:38 | 12.98259 | 80.16055 | 60 ft | 1 kts | 160° |
| 2026-04-22 07:39 | 12.98256 | 80.16056 | 52 ft | 0 kts | 160° |